Murray  Stahl net worth and biography

Murray Stahl Biography and Net Worth

Director of Texas Pacific Land
Founder of Horizon Kinetics Asset Management LLC, Kinetics Asset Management LLC, Horizon Kinetics LLC and Kinetics Advisers LLC, Murray Stahl is an entrepreneur and businessperson who has been the head of 8 different companies and presently is Chairman & Chief Executive Officer for FRMO Corp., Chairman & Chief Executive Officer at Fromex Equity Corp. (a subsidiary of FRMO Corp.), Chairman, President, Chief Executive Officer & CFO at RENN Fund, Inc., Chairman, Chief Executive & Investment Officer at Horizon Kinetics LLC, Chairman, CEO & CIO at Horizon Kinetics Asset Management LLC and Secretary & Director at Kinetics Mutual Funds, Inc. (both are subsidiaries of Horizon Kinetics LLC) and Chairman for Minneapolis Grain Exchange, Inc. Mr. Stahl is also on the board of Winland Holdings Corp., The Bermuda Stock Exchange Ltd., MSRH LLC and Texas Pacific Land Corp.

In his past career Murray Stahl occupied the position of Chairman, CEO & CIO at Kinetics Asset Management LLC, Chairman, Chief Executive & Investment Officer at Kinetics Advisers LLC and Senior Portfolio Manager & Research Analyst at Bankers Trust Co. (Des Moines, Iowa).

Mr. Stahl received an undergraduate degree and a graduate degree from Brooklyn College and an MBA from Pace University.

What is Murray Stahl's net worth?

The estimated net worth of Murray Stahl is at least $3.10 million as of May 15th, 2024. Mr. Stahl owns 5,073 shares of Texas Pacific Land stock worth more than $3,095,646 as of May 20th. This net worth evaluation does not reflect any other assets that Mr. Stahl may own. Learn More about Murray Stahl's net worth.

How do I contact Murray Stahl?

The corporate mailing address for Mr. Stahl and other Texas Pacific Land executives is 1700 PACIFIC AVENUE SUITE 2900, DALLAS TX, 75201. Texas Pacific Land can also be reached via phone at (214) 969-5530 and via email at [email protected]. Learn More on Murray Stahl's contact information.

Has Murray Stahl been buying or selling shares of Texas Pacific Land?

Over the course of the past ninety days, Murray Stahl has bought $12,351.54 in Texas Pacific Land stock. Most recently, on Monday, April 15th, Murray Stahl bought 3 shares of Texas Pacific Land stock. The stock was acquired at an average cost of $583.91 per share, with a total value of $1,751.73. Following the completion of the transaction, the director now directly owns 7,650 shares of the company's stock, valued at $4,466,911.50. Learn More on Murray Stahl's trading history.

Who are Texas Pacific Land's active insiders?

Texas Pacific Land's insider roster includes Donald Cook (Director), Micheal Dobbs (VP), Tyler Glover (CEO), and Murray Stahl (Director). Learn More on Texas Pacific Land's active insiders.

Are insiders buying or selling shares of Texas Pacific Land?

During the last year, Texas Pacific Land insiders bought shares 145 times. They purchased a total of 1,567 shares worth more than $841,320.00. During the last year, insiders at the financial services provider sold shares 1 times. They sold a total of 300 shares worth more than $185,177.00. The most recent insider tranaction occured on May, 15th when Major Shareholder Kinetics Asset Managem Horizon bought 3 shares worth more than $1,806.21. Insiders at Texas Pacific Land own 20.0% of the company. Learn More about insider trades at Texas Pacific Land.

Information on this page was last updated on 5/15/2024.

Murray Stahl Insider Trading History at Texas Pacific Land

Transaction DateBuy/SellNumber of SharesAverage Share PriceTotal TransactionShares Held After TransactionDetails
4/15/2024Buy3$583.91$1,751.737,650View SEC Filing Icon  
4/12/2024Buy3$605.72$1,817.167,647View SEC Filing Icon  
4/10/2024Buy3$594.22$1,782.667,641View SEC Filing Icon  
4/8/2024Buy3$579.12$1,737.367,635View SEC Filing Icon  
4/5/2024Buy3$596.22$1,788.667,632View SEC Filing Icon  
4/3/2024Buy3$586.90$1,760.707,626View SEC Filing Icon  
4/1/2024Buy3$571.09$1,713.277,620View SEC Filing Icon  
3/27/2024Buy3$576.33$1,728.997,614View SEC Filing Icon  
3/25/2024Buy9$574.85$5,173.687,602View SEC Filing Icon  
3/22/2024Buy9$561.96$5,057.617,593View SEC Filing Icon  
3/20/2024Buy9$563.93$5,075.407,575View SEC Filing Icon  
3/18/2024Buy27$556.70$15,030.90591,786View SEC Filing Icon  
3/15/2024Buy9$555.50$4,999.477,548View SEC Filing Icon  
3/11/2024Buy9$517.67$4,659.067,512View SEC Filing Icon  
3/8/2024Buy9$509.24$4,583.167,503View SEC Filing Icon  
3/6/2024Buy9$495.15$4,456.327,485View SEC Filing Icon  
3/4/2024Buy9$512.76$4,614.877,467View SEC Filing Icon  
3/1/2024Buy9$521.91$4,697.167,458View SEC Filing Icon  
2/28/2024Buy9$514.09$4,626.817,440View SEC Filing Icon  
2/26/2024Buy9$520.08$4,680.697,422View SEC Filing Icon  
2/22/2024Buy9$521.14$4,690.267,404View SEC Filing Icon  
2/20/2024Buy9$496.99$4,472.947,386View SEC Filing Icon  
2/16/2024Buy9$503.94$4,535.437,377View SEC Filing Icon  
2/14/2024Buy27$478.89$12,930.12591,588View SEC Filing Icon  
2/12/2024Buy9$488.78$4,399.057,341View SEC Filing Icon  
2/9/2024Buy9$488.70$4,398.337,332View SEC Filing Icon  
2/7/2024Buy9$496.95$4,472.557,314View SEC Filing Icon  
2/2/2024Buy9$479.38$4,314.427,287View SEC Filing Icon  
1/31/2024Buy9$487.11$4,383.997,269View SEC Filing Icon  
1/29/2024Buy9$506.95$4,562.557,251View SEC Filing Icon  
1/26/2024Buy9$496.23$4,466.077,242View SEC Filing Icon  
1/24/2024Buy21$501.88$10,539.48595,560View SEC Filing Icon  
1/22/2024Buy9$496.33$4,466.977,206View SEC Filing Icon  
1/18/2024Buy9$494.79$4,453.117,188View SEC Filing Icon  
1/16/2024Buy9$491.71$4,425.427,170View SEC Filing Icon  
1/12/2024Buy9$510.41$4,593.667,161View SEC Filing Icon  
1/10/2024Buy27$504.10$13,610.61595,503View SEC Filing Icon  
1/8/2024Buy9$512.26$4,610.317,125View SEC Filing Icon  
1/4/2024Buy9$516.83$4,651.507,107View SEC Filing Icon  
1/2/2024Buy9$534.87$4,813.837,089View SEC Filing Icon  
12/28/2023Buy9$532.71$4,794.366,831View SEC Filing Icon  
12/26/2023Buy9$546.17$4,915.536,813View SEC Filing Icon  
12/22/2023Buy9$538.60$4,847.406,804View SEC Filing Icon  
12/20/2023Buy9$537.90$4,841.076,786View SEC Filing Icon  
12/18/2023Buy9$534.12$4,807.116,768View SEC Filing Icon  
12/15/2023Buy27$532.41$14,375.07595,377View SEC Filing Icon  
9/15/2023Buy9$590.37$5,313.366,750View SEC Filing Icon  
9/13/2023Buy9$590.97$5,318.766,732View SEC Filing Icon  
9/11/2023Buy9$581.04$5,229.336,714View SEC Filing Icon  
9/7/2023Buy9$612.13$5,509.176,696View SEC Filing Icon  
9/5/2023Buy9$602.67$5,424.006,678View SEC Filing Icon  
8/31/2023Buy9$628.25$5,654.256,660View SEC Filing Icon  
8/28/2023Buy9$639.75$5,757.756,633View SEC Filing Icon  
8/25/2023Buy9$634.05$5,706.486,624View SEC Filing Icon  
8/23/2023Buy9$625.44$5,628.936,606View SEC Filing Icon  
8/21/2023Buy9$625.48$5,629.326,588View SEC Filing Icon  
8/18/2023Buy9$635.91$5,723.196,579View SEC Filing Icon  
8/16/2023Buy9$619.46$5,575.146,561View SEC Filing Icon  
8/14/2023Buy9$625.37$5,628.336,543View SEC Filing Icon  
8/11/2023Buy9$628.34$5,655.036,534View SEC Filing Icon  
8/9/2023Buy9$598.33$5,385.006,516View SEC Filing Icon  
8/7/2023Buy9$582.01$5,238.066,498View SEC Filing Icon  
8/4/2023Buy9$570.75$5,136.726,489View SEC Filing Icon  
8/2/2023Buy9$505.00$4,545.006,471View SEC Filing Icon  
7/31/2023Buy9$514.67$4,632.006,453View SEC Filing Icon  
7/28/2023Buy9$501.61$4,514.496,444View SEC Filing Icon  
7/26/2023Buy9$503.67$4,533.006,426View SEC Filing Icon  
7/24/2023Buy9$497.08$4,473.696,408View SEC Filing Icon  
7/21/2023Buy9$489.75$4,407.786,399View SEC Filing Icon  
7/19/2023Buy9$481.03$4,329.306,381View SEC Filing Icon  
7/17/2023Buy9$467.09$4,203.786,363View SEC Filing Icon  
7/14/2023Buy9$456.33$4,107.006,354View SEC Filing Icon  
7/12/2023Buy9$476.35$4,287.156,336View SEC Filing Icon  
7/10/2023Buy9$448.86$4,039.716,318View SEC Filing Icon  
7/7/2023Buy9$449.60$4,046.406,309View SEC Filing Icon  
7/5/2023Buy9$446.48$4,018.326,291View SEC Filing Icon  
7/3/2023Buy9$449.78$4,047.996,282View SEC Filing Icon  
6/30/2023Buy9$438.83$3,949.506,273View SEC Filing Icon  
6/28/2023Buy9$433.25$3,899.256,255View SEC Filing Icon  
6/26/2023Buy9$432.67$3,894.066,237View SEC Filing Icon  
6/22/2023Buy9$432.56$3,893.016,219View SEC Filing Icon  
6/20/2023Buy9$442.26$3,980.316,201View SEC Filing Icon  
6/15/2023Buy9$454.03$4,086.306,183View SEC Filing Icon  
2/13/2023Buy9$637.68$5,739.096,165View SEC Filing Icon  
2/10/2023Buy9$638.39$5,745.516,156View SEC Filing Icon  
2/8/2023Buy9$638.29$5,744.586,138View SEC Filing Icon  
2/6/2023Buy9$649.97$5,849.766,120View SEC Filing Icon  
2/3/2023Buy9$673.33$6,060.006,111View SEC Filing Icon  
2/1/2023Buy9$630.97$5,678.766,165View SEC Filing Icon  
1/30/2023Buy9$663.08$5,967.726,147View SEC Filing Icon  
1/27/2023Buy9$690.83$6,217.446,138View SEC Filing Icon  
1/25/2023Buy9$699.47$6,295.206,120View SEC Filing Icon  
1/23/2023Buy9$697.00$6,273.006,102View SEC Filing Icon  
1/19/2023Buy9$706.00$6,354.006,084View SEC Filing Icon  
1/17/2023Buy9$711.65$6,404.826,066View SEC Filing Icon  
1/13/2023Buy9$708.00$6,371.976,057View SEC Filing Icon  
1/11/2023Buy9$704.21$6,337.866,039View SEC Filing Icon  
1/9/2023Buy9$711.04$6,399.366,021View SEC Filing Icon  
1/5/2023Buy9$712.55$6,412.956,003View SEC Filing Icon  
1/3/2023Buy9$735.64$6,620.765,895View SEC Filing Icon  
12/29/2022Buy9$791.00$7,119.005,877View SEC Filing Icon  
12/27/2022Buy9$848.07$7,632.665,859View SEC Filing Icon  
12/23/2022Buy9$825.35$7,428.125,850View SEC Filing Icon  
12/21/2022Buy9$857.91$7,721.195,832View SEC Filing Icon  
12/19/2022Buy9$837.41$7,536.695,814View SEC Filing Icon  
12/16/2022Buy9$846.48$7,618.295,805View SEC Filing Icon  
12/14/2022Buy6$857.00$5,142.005,790View SEC Filing Icon  
12/12/2022Buy6$838.33$5,029.985,778View SEC Filing Icon  
12/9/2022Buy9$814.16$7,327.475,772View SEC Filing Icon  
12/7/2022Buy9$831.71$7,485.365,754View SEC Filing Icon  
12/5/2022Buy9$875.83$7,882.475,736View SEC Filing Icon  
12/2/2022Buy9$877.05$7,893.485,727View SEC Filing Icon  
11/30/2022Buy9$830.72$7,476.515,781View SEC Filing Icon  
11/28/2022Buy9$854.98$7,694.855,763View SEC Filing Icon  
11/25/2022Buy9$873.56$7,862.045,754View SEC Filing Icon  
11/23/2022Buy9$867.97$7,811.705,745View SEC Filing Icon  
11/21/2022Buy9$850.03$7,650.245,727View SEC Filing Icon  
11/18/2022Buy9$897.49$8,077.445,718View SEC Filing Icon  
11/16/2022Buy9$886.90$7,982.075,700View SEC Filing Icon  
11/14/2022Buy9$885.66$7,970.975,682View SEC Filing Icon  
11/11/2022Buy9$872.77$7,854.905,673View SEC Filing Icon  
11/9/2022Buy9$881.67$7,935.005,655View SEC Filing Icon  
11/7/2022Buy9$889.99$8,009.915,637View SEC Filing Icon  
11/4/2022Buy9$821.86$7,396.745,628View SEC Filing Icon  
11/2/2022Buy9$777.00$6,993.005,610View SEC Filing Icon  
10/31/2022Buy9$766.38$6,897.455,664View SEC Filing Icon  
10/28/2022Buy9$737.55$6,637.925,655View SEC Filing Icon  
10/26/2022Buy9$715.00$6,435.005,637View SEC Filing Icon  
10/24/2022Buy9$728.30$6,554.735,619View SEC Filing Icon  
10/21/2022Buy9$696.66$6,269.975,610View SEC Filing Icon  
10/19/2022Buy9$688.26$6,194.345,583View SEC Filing Icon  
10/17/2022Buy9$688.26$6,194.345,583View SEC Filing Icon  
10/14/2022Buy9$680.10$6,120.875,574View SEC Filing Icon  
10/12/2022Buy9$685.12$6,166.115,556View SEC Filing Icon  
10/10/2022Buy9$667.13$6,004.145,538View SEC Filing Icon  
10/7/2022Buy9$660.46$5,944.175,529View SEC Filing Icon  
10/5/2022Buy9$671.16$6,040.445,511View SEC Filing Icon  
10/3/2022Buy9$622.00$5,598.005,574View SEC Filing Icon  
9/30/2022Buy9$592.41$5,331.695,565View SEC Filing Icon  
9/28/2022Buy9$588.84$5,299.565,547View SEC Filing Icon  
9/26/2022Buy9$542.28$4,880.555,529View SEC Filing Icon  
9/23/2022Buy9$546.73$4,920.575,520View SEC Filing Icon  
9/21/2022Buy9$591.26$5,321.375,502View SEC Filing Icon  
9/21/2022Buy9$591.26$5,321.375,502View SEC Filing Icon  
9/19/2022Buy9$605.46$5,449.145,484View SEC Filing Icon  
9/16/2022Buy9$591.03$5,319.305,475View SEC Filing Icon  
9/14/2022Buy9$619.44$5,574.935,457View SEC Filing Icon  
9/12/2022Buy9$609.05$5,481.485,439View SEC Filing Icon  
9/8/2022Buy9$602.46$5,422.175,421View SEC Filing Icon  
8/29/2022Buy9$617.43$5,556.875,439View SEC Filing Icon  
8/26/2022Buy9$611.43$5,502.845,430View SEC Filing Icon  
8/24/2022Buy9$604.77$5,442.965,412View SEC Filing Icon  
8/22/2022Buy9$579.83$5,218.505,394View SEC Filing Icon  
8/19/2022Buy9$573.55$5,161.985,385View SEC Filing Icon  
8/17/2022Buy9$575.00$5,175.005,367View SEC Filing Icon  
8/15/2022Buy9$562.43$5,061.905,349View SEC Filing Icon  
8/11/2022Buy9$581.53$5,233.805,331View SEC Filing Icon  
8/9/2022Buy9$570.33$5,133.005,313View SEC Filing Icon  
8/5/2022Buy9$552.27$4,970.465,295View SEC Filing Icon  
8/3/2022Buy9$589.80$5,308.235,277View SEC Filing Icon  
8/1/2022Buy9$607.31$5,465.825,340View SEC Filing Icon  
7/29/2022Buy9$611.28$5,501.555,331View SEC Filing Icon  
7/27/2022Buy9$609.64$5,486.765,313View SEC Filing Icon  
7/25/2022Buy9$589.98$5,309.795,295View SEC Filing Icon  
7/22/2022Buy9$573.33$5,160.005,286View SEC Filing Icon  
7/20/2022Buy9$603.98$5,435.825,268View SEC Filing Icon  
7/18/2022Buy9$564.19$5,077.715,250View SEC Filing Icon  
7/15/2022Buy9$555.56$5,000.015,241View SEC Filing Icon  
7/13/2022Buy9$533.12$4,798.115,223View SEC Filing Icon  
7/11/2022Buy9$515.67$4,641.005,205View SEC Filing Icon  
7/7/2022Buy9$510.75$4,596.725,187View SEC Filing Icon  
7/5/2022Buy9$489.45$4,405.055,250View SEC Filing Icon  
7/1/2022Buy9$508.99$4,580.915,241View SEC Filing Icon  
6/29/2022Buy9$501.93$4,517.375,223View SEC Filing Icon  
6/27/2022Buy9$512.88$4,615.925,205View SEC Filing Icon  
6/23/2022Buy9$486.04$4,374.365,187View SEC Filing Icon  
6/21/2022Buy9$514.19$4,627.685,169View SEC Filing Icon  
6/17/2022Buy9$485.39$4,368.545,160View SEC Filing Icon  
6/15/2022Buy9$541.33$4,872.005,142View SEC Filing Icon  
6/13/2022Buy9$534.50$4,810.505,124View SEC Filing Icon  
6/10/2022Buy9$570.97$5,138.765,115View SEC Filing Icon  
6/8/2022Buy9$573.29$5,159.585,097View SEC Filing Icon  
6/6/2022Buy9$560.59$5,045.315,079View SEC Filing Icon  
6/2/2022Buy9$544.22$4,898.015,061View SEC Filing Icon  
5/31/2022Buy9$522.00$4,697.975,124View SEC Filing Icon  
5/27/2022Buy9$524.67$4,722.065,115View SEC Filing Icon  
5/25/2022Buy9$495.61$4,460.525,097View SEC Filing Icon  
5/23/2022Buy9$468.84$4,219.565,079View SEC Filing Icon  
5/20/2022Buy9$457.43$4,116.905,070View SEC Filing Icon  
5/18/2022Buy9$451.41$4,062.725,052View SEC Filing Icon  
5/16/2022Buy9$456.44$4,107.965,034View SEC Filing Icon  
5/13/2022Buy9$450.64$4,055.795,025View SEC Filing Icon  
5/11/2022Buy9$425.22$3,827.015,007View SEC Filing Icon  
5/9/2022Buy9$432.33$3,890.974,989View SEC Filing Icon  
5/6/2022Buy9$474.61$4,271.524,980View SEC Filing Icon  
5/4/2022Buy9$474.97$4,274.734,962View SEC Filing Icon  
5/2/2022Buy9$452.51$4,072.565,025View SEC Filing Icon  
4/29/2022Buy9$455.53$4,099.805,016View SEC Filing Icon  
4/27/2022Buy9$444.21$3,997.894,998View SEC Filing Icon  
4/25/2022Buy9$457.19$4,114.684,980View SEC Filing Icon  
4/22/2022Buy9$459.44$4,134.994,971View SEC Filing Icon  
4/20/2022Buy9$502.10$4,518.874,953View SEC Filing Icon  
4/18/2022Buy9$496.27$4,466.434,935View SEC Filing Icon  
4/13/2022Buy9$486.18$4,375.654,917View SEC Filing Icon  
4/11/2022Buy9$463.61$4,172.494,899View SEC Filing Icon  
4/8/2022Buy9$475.43$4,278.904,890View SEC Filing Icon  
4/6/2022Buy9$471.25$4,241.254,881View SEC Filing Icon  
4/4/2022Buy9$493.10$4,437.904,863View SEC Filing Icon  
4/1/2022Buy9$473.79$4,264.084,845View SEC Filing Icon  
3/30/2022Buy9$483.45$4,351.05View SEC Filing Icon  
3/28/2022Buy9$467.30$4,205.70View SEC Filing Icon  
3/25/2022Buy9$484.83$4,363.50View SEC Filing Icon  
3/23/2022Buy9$473.34$4,260.03View SEC Filing Icon  
3/21/2022Buy9$465.25$4,187.22View SEC Filing Icon  
3/18/2022Buy9$449.48$4,045.35View SEC Filing Icon  
3/16/2022Buy9$424.89$3,824.01View SEC Filing Icon  
3/14/2022Buy9$428.03$3,852.27View SEC Filing Icon  
3/11/2022Buy9$438.71$3,948.36View SEC Filing Icon  
3/9/2022Buy9$428.66$3,857.91View SEC Filing Icon  
3/4/2022Buy9$433.05$3,897.45View SEC Filing Icon  
3/2/2022Buy9$414.25$3,728.25View SEC Filing Icon  
2/28/2022Buy9$396.24$3,566.19View SEC Filing Icon  
2/24/2022Buy6$366.10$2,196.60View SEC Filing Icon  
2/22/2022Buy6$333.08$1,998.48View SEC Filing Icon  
2/18/2022Buy9$335.23$3,017.04View SEC Filing Icon  
2/16/2022Buy9$340.13$3,061.14View SEC Filing Icon  
2/14/2022Buy9$353.34$3,180.03View SEC Filing Icon  
2/11/2022Buy9$368.48$3,316.35View SEC Filing Icon  
2/9/2022Buy9$355.64$3,200.76View SEC Filing Icon  
2/7/2022Buy9$358.78$3,229.02View SEC Filing Icon  
2/4/2022Buy9$364.28$3,278.49View SEC Filing Icon  
2/2/2022Buy9$371.47$3,343.20View SEC Filing Icon  
1/31/2022Buy9$358.33$3,225.00View SEC Filing Icon  
1/28/2022Buy9$344.95$3,104.52View SEC Filing Icon  
1/26/2022Buy9$341.31$3,071.76View SEC Filing Icon  
1/24/2022Buy9$346.42$3,117.81View SEC Filing Icon  
1/20/2022Buy9$336.92$3,032.28View SEC Filing Icon  
1/18/2022Buy9$355.80$3,202.20View SEC Filing Icon  
1/14/2022Buy9$370.59$3,335.31View SEC Filing Icon  
1/12/2022Buy9$407.99$3,671.91View SEC Filing Icon  
1/10/2022Buy9$404.36$3,639.21View SEC Filing Icon  
1/5/2022Buy9$419.03$3,771.27View SEC Filing Icon  
1/3/2022Buy9$424.71$3,822.42View SEC Filing Icon  
12/29/2021Buy9$417.25$3,755.25View SEC Filing Icon  
12/27/2021Buy9$427.86$3,850.74View SEC Filing Icon  
12/22/2021Buy9$409.93$3,689.40View SEC Filing Icon  
12/20/2021Buy9$403.31$3,629.82View SEC Filing Icon  
12/17/2021Buy9$402.24$3,620.19View SEC Filing Icon  
12/15/2021Buy9$412.11$3,709.02View SEC Filing Icon  
12/13/2021Buy9$415.16$3,736.44View SEC Filing Icon  
12/10/2021Buy9$422.65$3,803.88View SEC Filing Icon  
12/8/2021Buy9$429.39$3,864.48View SEC Filing Icon  
12/6/2021Buy9$421.20$3,790.83View SEC Filing Icon  
12/3/2021Buy9$401.89$3,616.98View SEC Filing Icon  
12/1/2021Buy9$393.50$3,541.47View SEC Filing Icon  
11/29/2021Buy9$421.00$3,789.03View SEC Filing Icon  
11/26/2021Buy42$414.33$17,401.86View SEC Filing Icon  
11/24/2021Buy9$435.83$3,922.44View SEC Filing Icon  
11/22/2021Buy9$417.93$3,761.40View SEC Filing Icon  
11/19/2021Buy9$415.30$3,737.73View SEC Filing Icon  
11/17/2021Buy9$419.34$3,774.06View SEC Filing Icon  
11/15/2021Buy9$431.71$3,885.39View SEC Filing Icon  
11/12/2021Buy9$432.18$3,889.59View SEC Filing Icon  
11/10/2021Buy9$446.63$4,019.70View SEC Filing Icon  
11/8/2021Buy9$461.81$4,156.26View SEC Filing Icon  
11/5/2021Buy9$455.86$4,102.71View SEC Filing Icon  
11/3/2021Buy9$424.67$3,822.00View SEC Filing Icon  
11/1/2021Buy9$437.77$3,939.90View SEC Filing Icon  
10/29/2021Buy9$424.56$3,821.01View SEC Filing Icon  
10/27/2021Buy9$414.30$3,728.70View SEC Filing Icon  
10/25/2021Buy9$431.26$3,881.31View SEC Filing Icon  
10/22/2021Buy9$421.99$3,797.94View SEC Filing Icon  
10/20/2021Buy9$423.64$3,812.76View SEC Filing Icon  
10/18/2021Buy9$408.33$3,675.00View SEC Filing Icon  
10/15/2021Buy9$407.45$3,667.08View SEC Filing Icon  
10/13/2021Buy9$398.28$3,584.52View SEC Filing Icon  
10/11/2021Buy9$399.34$3,594.03View SEC Filing Icon  
10/8/2021Buy9$404.48$3,640.32View SEC Filing Icon  
10/6/2021Buy9$387.44$3,486.99View SEC Filing Icon  
10/4/2021Buy9$383.93$3,455.37View SEC Filing Icon  
10/1/2021Buy9$391.00$3,519.03View SEC Filing Icon  
9/29/2021Buy9$413.53$3,721.80View SEC Filing Icon  
9/27/2021Buy9$455.67$4,101.00View SEC Filing Icon  
9/24/2021Buy9$433.84$3,904.56View SEC Filing Icon  
9/22/2021Buy9$422.43$3,801.87View SEC Filing Icon  
9/20/2021Buy9$414.35$3,729.18View SEC Filing Icon  
9/17/2021Buy9$433.47$3,901.20View SEC Filing Icon  
9/15/2021Buy9$417.54$3,757.86View SEC Filing Icon  
9/13/2021Buy9$414.16$3,727.41View SEC Filing Icon  
9/9/2021Buy9$408.92$3,680.28View SEC Filing Icon  
9/7/2021Buy9$406.26$3,656.34View SEC Filing Icon  
9/3/2021Buy9$431.96$3,887.64View SEC Filing Icon  
9/1/2021Buy9$451.62$4,064.55View SEC Filing Icon  
8/30/2021Buy9$471.80$4,246.23View SEC Filing Icon  
8/27/2021Buy9$471.67$4,245.00View SEC Filing Icon  
8/25/2021Buy9$472.31$4,250.76View SEC Filing Icon  
8/23/2021Buy9$454.67$4,092.00View SEC Filing Icon  
8/20/2021Buy9$444.21$3,997.92View SEC Filing Icon  
8/18/2021Buy9$456.50$4,108.50View SEC Filing Icon  
8/16/2021Buy9$483.05$4,347.48View SEC Filing Icon  
8/13/2021Buy9$494.46$4,450.17View SEC Filing Icon  
8/11/2021Buy9$497.13$4,474.14View SEC Filing Icon  
8/9/2021Buy9$495.40$4,458.60View SEC Filing Icon  
8/6/2021Buy9$493.27$4,439.43View SEC Filing Icon  
8/4/2021Buy9$482.04$4,338.39View SEC Filing Icon  
8/2/2021Buy9$492.95$4,436.55View SEC Filing Icon  
7/30/2021Buy9$497.52$4,477.65View SEC Filing Icon  
7/28/2021Buy9$494.36$4,449.21View SEC Filing Icon  
7/26/2021Buy9$498.73$4,488.60View SEC Filing Icon  
7/23/2021Buy9$500.00$4,499.97View SEC Filing Icon  
7/21/2021Buy9$508.01$4,572.12View SEC Filing Icon  
7/19/2021Buy9$466.11$4,195.02View SEC Filing Icon  
7/16/2021Buy9$471.90$4,247.10View SEC Filing Icon  
7/14/2021Buy9$492.55$4,432.95View SEC Filing Icon  
7/12/2021Buy9$515.23$4,637.07View SEC Filing Icon  
7/8/2021Buy9$486.69$4,380.21View SEC Filing Icon  
7/6/2021Buy9$516.37$4,647.33View SEC Filing Icon  
7/1/2021Buy9$538.61$4,847.52View SEC Filing Icon  
6/28/2021Buy9$517.65$4,658.82View SEC Filing Icon  
6/25/2021Buy9$525.36$4,728.27View SEC Filing Icon  
6/23/2021Buy9$535.96$4,823.64View SEC Filing Icon  
6/21/2021Buy9$531.15$4,780.35View SEC Filing Icon  
6/18/2021Buy9$505.64$4,550.76View SEC Filing Icon  
6/16/2021Buy9$521.33$4,692.00View SEC Filing Icon  
6/14/2021Buy9$499.33$4,494.00View SEC Filing Icon  
6/10/2021Buy9$497.33$4,475.97View SEC Filing Icon  
6/7/2021Buy9$502.33$4,521.00View SEC Filing Icon  
6/4/2021Buy9$495.45$4,459.02View SEC Filing Icon  
6/2/2021Buy9$496.87$4,471.86View SEC Filing Icon  
5/28/2021Buy9$484.37$4,359.36View SEC Filing Icon  
5/26/2021Buy9$489.50$4,405.50View SEC Filing Icon  
5/24/2021Buy9$502.15$4,519.32View SEC Filing Icon  
5/21/2021Buy9$513.33$4,620.00View SEC Filing Icon  
5/19/2021Buy9$504.90$4,544.13View SEC Filing Icon  
5/17/2021Buy9$550.00$4,950.006,000View SEC Filing Icon  
5/14/2021Buy9$562.72$5,064.51View SEC Filing Icon  
5/12/2021Buy9$562.94$5,066.49View SEC Filing Icon  
5/10/2021Buy9$583.52$5,251.71View SEC Filing Icon  
5/6/2021Buy9$535.96$4,823.64View SEC Filing Icon  
5/4/2021Buy9$545.98$4,913.85View SEC Filing Icon  
4/30/2021Buy9$513.38$4,620.45View SEC Filing Icon  
4/28/2021Buy9$552.76$4,974.87View SEC Filing Icon  
4/26/2021Buy9$525.34$4,728.06View SEC Filing Icon  
4/23/2021Buy9$490.89$4,418.04View SEC Filing Icon  
4/21/2021Buy9$485.55$4,369.95View SEC Filing Icon  
4/19/2021Buy9$515.33$4,638.00View SEC Filing Icon  
4/14/2021Buy9$537.67$4,839.00View SEC Filing Icon  
4/12/2021Buy9$532.79$4,795.14View SEC Filing Icon  
4/9/2021Buy9$532.73$4,794.57View SEC Filing Icon  
4/7/2021Buy9$537.52$4,837.71View SEC Filing Icon  
4/5/2021Buy9$529.33$4,763.97View SEC Filing Icon  
3/31/2021Buy9$529.81$4,768.29View SEC Filing Icon  
3/29/2021Buy9$492.11$4,429.02View SEC Filing Icon  
3/26/2021Buy9$526.00$4,734.00View SEC Filing Icon  
3/24/2021Buy9$495.47$4,459.20View SEC Filing Icon  
3/22/2021Buy9$527.84$4,750.56View SEC Filing Icon  
3/19/2021Buy9$558.48$5,026.35View SEC Filing Icon  
3/17/2021Buy9$567.93$5,111.34View SEC Filing Icon  
3/15/2021Buy9$519.31$4,673.766,000View SEC Filing Icon  
3/12/2021Buy9$479.00$4,311.003,531View SEC Filing Icon  
3/10/2021Buy9$453.12$4,078.113,513View SEC Filing Icon  
3/8/2021Buy9$419.33$3,774.003,495View SEC Filing Icon  
3/4/2021Buy9$391.67$3,525.063,477View SEC Filing Icon  
3/1/2021Buy9$369.26$3,323.343,723View SEC Filing Icon  
2/26/2021Buy9$368.01$3,312.123,714View SEC Filing Icon  
2/24/2021Buy9$381.17$3,430.563,696View SEC Filing Icon  
2/22/2021Buy9$366.67$3,300.033,678View SEC Filing Icon  
2/19/2021Buy15$369.67$5,545.003,666View SEC Filing Icon  
2/17/2021Buy15$380.94$5,714.153,636View SEC Filing Icon  
2/12/2021Buy15$373.26$5,598.903,606View SEC Filing Icon  
2/10/2021Buy15$355.31$5,329.703,576View SEC Filing Icon  
2/8/2021Buy15$340.00$5,100.003,546View SEC Filing Icon  
2/5/2021Buy15$331.00$4,964.953,531View SEC Filing Icon  
11/11/2020Buy4,050$0.49$1,984.50
See Full Table

Murray Stahl Buying and Selling Activity at Texas Pacific Land

This chart shows Murray Stahl's buying and selling at Texas Pacific Land by year and by quarter.

Skip ChartChart Data in Insider Trading History Table

Texas Pacific Land Company Overview

Texas Pacific Land logo
Texas Pacific Land Corporation engages in the land and resource management, and water services and operations businesses. The company owns a 1/128th nonparticipating perpetual oil and gas royalty interest (NPRI) under approximately 85,000 acres of land; a 1/16th NPRI under approximately 371,000 acres of land; and approximately 4,000 additional net royalty acres, total of approximately 195,000 NRA located in the western part of Texas. The Land and Resource Management segment manages surface acres of land, and oil and gas royalty interest in West Texas. This segment also engages in easements, such as transporting oil, gas and related hydrocarbons, power line and utility, and subsurface wellbore easements. In addition, this segment leases its land for processing, storage, and compression facilities and roads; and is involved in sale of materials, such as caliche, sand, and other material, as well as sells land. The Water Services and Operations segment provides full-service water offerings, including water sourcing, produced-water treatment, infrastructure development, and disposal solutions to operators in the Permian Basin. This segment also holds produced water royalties. Texas Pacific Land Corporation was founded in 1888 and is headquartered in Dallas, Texas.
Read More

Today's Range

Now: $610.22
Low: $608.84
High: $615.74

50 Day Range

MA: $579.52
Low: $519.60
High: $623.71

2 Week Range

Now: $610.22
Low: $422.07
High: $666.67

Volume

40,400 shs

Average Volume

70,384 shs

Market Capitalization

$14.03 billion

P/E Ratio

32.44

Dividend Yield

0.76%

Beta

1.59